Time;durP1;ratioP1;P1;durP2;ratioP2;P2;SDS_P1;SDS_P2;PMS_P1;PMS_P2;Temp;Humidity;BMP_temperature;BMP_pressure;BME280_temperature;BME280_humidity;BME280_pressure;Samples;Min_cycle;Max_cycle;Signal;HPM_P1;HPM_P2
2022/11/10 00:02:10;;;;;;;13.05;5.95;;;18.80;59.90;;;;;;5015025;28;20650;-70
2022/11/10 00:04:56;;;;;;;11.73;6.03;;;18.80;59.90;;;;;;5014715;28;20208;-70
2022/11/10 00:07:43;;;;;;;10.10;6.45;;;18.80;59.90;;;;;;5013926;28;20224;-70
2022/11/10 00:10:28;;;;;;;9.93;6.07;;;18.80;60.00;;;;;;5015624;28;20243;-70
2022/11/10 00:13:14;;;;;;;10.13;5.38;;;18.80;60.00;;;;;;5057448;23;20650;-69
2022/11/10 00:19:05;;;;;;;10.88;5.82;;;18.70;60.00;;;;;;4995483;28;20232;-69
2022/11/10 00:21:51;;;;;;;10.80;5.53;;;18.70;60.00;;;;;;4995299;28;20548;-69
2022/11/10 00:24:37;;;;;;;10.43;5.22;;;18.70;60.00;;;;;;4994980;28;20213;-69
2022/11/10 00:27:24;;;;;;;11.40;5.82;;;18.70;60.00;;;;;;4995358;28;20271;-69
2022/11/10 00:30:10;;;;;;;9.18;5.00;;;18.70;60.00;;;;;;4995266;28;20189;-69
2022/11/10 00:32:57;;;;;;;9.77;4.78;;;18.70;60.00;;;;;;4995568;28;20193;-69
2022/11/10 00:35:44;;;;;;;11.70;5.50;;;18.70;60.10;;;;;;4995281;28;20200;-69
2022/11/10 00:38:30;;;;;;;10.90;4.78;;;18.70;60.10;;;;;;4994650;28;20668;-69
2022/11/10 00:41:16;;;;;;;9.95;4.40;;;18.70;60.10;;;;;;4995822;28;20280;-69
2022/11/10 00:44:02;;;;;;;11.40;5.75;;;18.60;60.00;;;;;;4996387;28;20328;-69
2022/11/10 00:46:47;;;;;;;9.35;5.13;;;18.60;60.10;;;;;;4995679;28;20224;-70
2022/11/10 00:49:34;;;;;;;10.73;5.32;;;18.60;60.00;;;;;;4995109;28;20655;-69
2022/11/10 00:52:20;;;;;;;10.70;5.25;;;18.60;60.10;;;;;;4995452;28;20268;-69
2022/11/10 00:55:07;;;;;;;9.07;5.00;;;18.60;60.10;;;;;;4995009;28;20185;-69
2022/11/10 00:57:52;;;;;;;9.63;4.88;;;18.60;60.20;;;;;;4994947;28;20523;-69
2022/11/10 01:00:38;;;;;;;9.50;4.95;;;18.60;60.10;;;;;;4995086;28;20192;-69
2022/11/10 01:03:24;;;;;;;7.78;4.50;;;18.60;60.20;;;;;;4994814;28;20655;-69
2022/11/10 01:06:13;;;;;;;9.18;5.25;;;18.60;60.20;;;;;;4994886;28;20185;-69
2022/11/10 01:08:58;;;;;;;10.43;4.82;;;18.60;60.20;;;;;;4994827;28;20204;-69
2022/11/10 01:11:44;;;;;;;8.98;4.30;;;18.60;60.20;;;;;;4994518;28;20252;-69
2022/11/10 01:14:29;;;;;;;6.97;3.88;;;18.60;60.30;;;;;;4994364;28;20243;-69
2022/11/10 01:17:15;;;;;;;8.63;4.30;;;18.60;60.30;;;;;;4994401;28;20306;-69
2022/11/10 01:20:01;;;;;;;8.35;4.30;;;18.60;60.30;;;;;;4994617;28;20312;-73
2022/11/10 01:22:48;;;;;;;8.63;5.13;;;18.50;60.20;;;;;;4995155;28;20185;-69
2022/11/10 01:25:33;;;;;;;8.10;4.18;;;18.50;60.20;;;;;;4995204;28;20217;-69
2022/11/10 01:28:19;;;;;;;8.30;4.05;;;18.50;60.30;;;;;;4995394;28;20240;-69
2022/11/10 01:31:06;;;;;;;6.75;3.97;;;18.50;60.20;;;;;;4998383;28;20556;-69
2022/11/10 01:33:52;;;;;;;7.35;4.30;;;18.50;60.30;;;;;;5012198;28;20624;-69
2022/11/10 01:36:37;;;;;;;8.05;4.10;;;18.50;60.30;;;;;;4997004;28;20224;-70
2022/11/10 01:39:25;;;;;;;6.18;4.05;;;18.50;60.30;;;;;;4995390;28;20193;-69
2022/11/10 01:42:11;;;;;;;6.38;4.03;;;18.50;60.30;;;;;;4995521;28;20196;-69
2022/11/10 01:45:46;;;;;;;6.50;3.97;;;18.50;60.40;;;;;;4994277;28;20296;-69
2022/11/10 01:48:34;;;;;;;7.20;3.95;;;18.50;60.40;;;;;;4994351;28;20216;-69
2022/11/10 01:51:22;;;;;;;6.80;3.85;;;18.50;60.40;;;;;;4998349;28;20192;-69
2022/11/10 01:54:09;;;;;;;8.32;4.00;;;18.40;60.30;;;;;;4998246;28;20325;-69
2022/11/10 01:56:58;;;;;;;8.05;3.60;;;18.40;60.30;;;;;;4998695;28;20224;-74
2022/11/10 01:59:45;;;;;;;7.32;4.00;;;18.50;60.40;;;;;;4998547;28;20192;-69
2022/11/10 02:02:32;;;;;;;6.75;3.90;;;18.40;60.30;;;;;;4998489;28;20188;-69
2022/11/10 02:05:18;;;;;;;5.35;3.72;;;18.40;60.30;;;;;;4998678;28;20674;-70
2022/11/10 02:08:04;;;;;;;7.18;3.70;;;18.40;60.40;;;;;;4998836;28;20255;-70
2022/11/10 02:10:50;;;;;;;6.85;3.45;;;18.40;60.30;;;;;;4998896;28;20550;-70
2022/11/10 02:13:37;;;;;;;6.60;3.65;;;18.40;60.30;;;;;;4999064;28;20320;-69
2022/11/10 02:16:23;;;;;;;6.28;3.30;;;18.40;60.40;;;;;;4998535;28;20232;-69
2022/11/10 02:19:14;;;;;;;5.85;3.55;;;18.40;60.40;;;;;;4998637;28;20184;-69
2022/11/10 02:22:01;;;;;;;6.03;3.60;;;18.30;60.10;;;;;;4998173;28;20258;-69
2022/11/10 02:24:47;;;;;;;5.93;3.40;;;18.30;60.30;;;;;;4997882;28;20267;-69
2022/11/10 02:27:32;;;;;;;7.20;3.80;;;18.30;60.10;;;;;;4998805;28;20271;-69
2022/11/10 02:30:18;;;;;;;7.68;3.40;;;18.30;60.20;;;;;;4997647;28;20584;-69
2022/11/10 02:33:03;;;;;;;7.53;3.90;;;18.30;60.20;;;;;;4997474;28;20192;-69
2022/11/10 02:35:49;;;;;;;6.38;3.30;;;18.20;60.40;;;;;;4997346;28;20184;-69
2022/11/10 02:38:37;;;;;;;6.45;3.35;;;18.20;60.20;;;;;;4997418;28;20232;-69
2022/11/10 02:41:23;;;;;;;5.57;3.30;;;18.20;60.40;;;;;;4996874;28;20659;-69
2022/11/10 02:44:08;;;;;;;4.38;3.00;;;18.20;60.30;;;;;;4997057;28;20209;-69
2022/11/10 02:46:54;;;;;;;6.03;3.40;;;18.20;60.40;;;;;;4997739;28;20295;-70
2022/11/10 02:49:39;;;;;;;5.32;3.15;;;18.20;60.50;;;;;;4997613;28;20699;-68
2022/11/10 02:52:25;;;;;;;4.90;3.40;;;18.10;60.40;;;;;;4997222;28;20549;-68
2022/11/10 02:55:12;;;;;;;6.70;2.88;;;18.10;60.40;;;;;;4996971;28;20180;-69
2022/11/10 02:57:58;;;;;;;6.72;3.47;;;18.10;60.50;;;;;;4996650;28;20734;-69
2022/11/10 03:00:44;;;;;;;6.03;3.53;;;18.10;60.40;;;;;;4995745;28;20264;-69
2022/11/10 03:03:30;;;;;;;4.68;3.00;;;18.10;60.40;;;;;;4996577;28;20184;-69
2022/11/10 03:06:15;;;;;;;5.57;3.40;;;18.10;60.50;;;;;;4996614;28;20197;-69
2022/11/10 03:09:01;;;;;;;5.78;3.17;;;18.10;60.50;;;;;;4996429;28;20189;-69
2022/11/10 03:11:48;;;;;;;3.97;2.80;;;18.10;60.50;;;;;;4996618;28;20189;-69
2022/11/10 03:14:34;;;;;;;5.28;3.05;;;18.00;60.50;;;;;;4996222;28;20347;-69
2022/11/10 03:17:21;;;;;;;5.20;2.90;;;18.00;60.50;;;;;;4996367;28;20271;-69
2022/11/10 03:20:08;;;;;;;4.30;2.78;;;18.00;60.50;;;;;;4996244;28;20311;-69
2022/11/10 03:22:53;;;;;;;6.18;3.08;;;18.00;60.50;;;;;;4995332;28;20185;-69
2022/11/10 03:25:39;;;;;;;5.13;3.40;;;18.00;60.60;;;;;;4996035;28;20348;-69
2022/11/10 03:28:26;;;;;;;6.55;2.90;;;18.00;60.50;;;;;;4996220;28;20220;-69
2022/11/10 03:31:12;;;;;;;4.70;2.83;;;18.00;60.60;;;;;;4995017;28;20336;-69
2022/11/10 03:33:58;;;;;;;5.05;3.15;;;17.90;61.20;;;;;;4996082;28;20188;-69
2022/11/10 03:36:45;;;;;;;4.28;2.78;;;17.90;60.50;;;;;;4995896;28;20754;-69
2022/11/10 03:39:31;;;;;;;5.13;2.70;;;17.90;60.70;;;;;;4996045;28;20647;-69
2022/11/10 03:42:17;;;;;;;4.65;3.03;;;17.90;60.80;;;;;;4995704;28;20192;-69
2022/11/10 03:45:04;;;;;;;4.60;2.78;;;17.90;60.70;;;;;;4996393;28;20216;-69
2022/11/10 03:47:50;;;;;;;3.78;2.80;;;17.90;60.70;;;;;;4995760;28;20334;-69
2022/11/10 03:50:36;;;;;;;5.03;2.78;;;17.90;60.80;;;;;;4995750;28;20196;-69
2022/11/10 03:53:22;;;;;;;5.60;2.88;;;17.90;60.70;;;;;;4995922;28;20232;-70
2022/11/10 03:56:08;;;;;;;5.90;2.92;;;17.80;60.60;;;;;;4996332;28;20272;-69
2022/11/10 03:58:53;;;;;;;4.35;2.75;;;17.80;60.60;;;;;;4996377;28;20197;-69
2022/11/10 04:01:40;;;;;;;5.63;2.70;;;17.80;60.50;;;;;;4995156;28;20197;-69
2022/11/10 04:10:35;;;;;;;4.18;2.47;;;17.80;60.20;;;;;;4996819;28;20191;-69
2022/11/10 04:16:23;;;;;;;4.80;2.50;;;17.80;60.00;;;;;;4996330;28;20592;-69
2022/11/10 04:19:10;;;;;;;3.30;2.30;;;17.80;60.10;;;;;;4995710;28;20210;-69
2022/11/10 04:21:56;;;;;;;3.88;2.70;;;17.80;60.20;;;;;;4996160;28;20189;-69
2022/11/10 04:24:41;;;;;;;3.60;2.40;;;17.80;60.30;;;;;;4995509;28;20232;-69
2022/11/10 04:27:26;;;;;;;4.22;2.38;;;17.80;60.20;;;;;;4995612;28;20307;-69
2022/11/10 04:30:12;;;;;;;6.32;2.80;;;17.80;60.20;;;;;;4995651;28;20653;-69
2022/11/10 04:32:58;;;;;;;3.45;2.08;;;17.80;60.50;;;;;;4995206;28;20553;-69
2022/11/10 04:35:45;;;;;;;4.15;2.50;;;17.80;60.40;;;;;;4994787;28;20216;-68
2022/11/10 04:38:31;;;;;;;3.15;2.30;;;17.80;60.20;;;;;;4994723;28;20188;-69
2022/11/10 04:41:17;;;;;;;3.03;2.30;;;17.80;60.00;;;;;;4994764;28;20243;-69
2022/11/10 04:44:02;;;;;;;3.72;2.40;;;17.90;59.90;;;;;;4994713;28;20219;-69
2022/11/10 04:46:48;;;;;;;3.60;2.55;;;17.90;59.90;;;;;;4994827;28;20702;-69
2022/11/10 04:49:34;;;;;;;2.60;2.10;;;17.90;59.80;;;;;;4994890;28;20189;-69
2022/11/10 04:52:21;;;;;;;6.30;2.70;;;17.90;59.70;;;;;;4994454;28;20258;-69
2022/11/10 04:55:09;;;;;;;2.58;2.28;;;18.00;59.80;;;;;;4994591;28;20197;-69
2022/11/10 04:57:55;;;;;;;3.25;2.03;;;18.00;59.60;;;;;;4994278;28;20711;-69
2022/11/10 05:00:40;;;;;;;3.08;2.30;;;17.90;59.50;;;;;;4994336;28;20557;-69
2022/11/10 05:03:26;;;;;;;4.10;2.40;;;18.00;59.40;;;;;;4994824;28;20248;-69
2022/11/10 05:06:12;;;;;;;4.15;2.60;;;18.00;59.40;;;;;;4994306;28;20351;-70
2022/11/10 05:08:59;;;;;;;3.78;2.25;;;18.00;59.30;;;;;;4994553;28;20200;-69
2022/11/10 05:11:45;;;;;;;5.45;2.50;;;18.00;59.20;;;;;;4994709;28;20547;-69
2022/11/10 05:14:32;;;;;;;3.47;2.22;;;18.00;59.30;;;;;;4994175;28;20228;-69
2022/11/10 05:17:17;;;;;;;4.38;2.60;;;18.00;59.20;;;;;;4994185;28;20351;-69
2022/11/10 05:20:03;;;;;;;3.10;2.33;;;18.00;59.10;;;;;;4994372;28;20201;-69
2022/11/10 05:25:50;;;;;;;3.97;2.10;;;18.00;59.10;;;;;;4997093;28;20699;-69
2022/11/10 05:28:36;;;;;;;3.78;2.33;;;17.90;59.10;;;;;;4998257;28;20268;-69
2022/11/10 05:31:22;;;;;;;4.13;2.35;;;17.90;59.70;;;;;;4997981;28;20192;-69
2022/11/10 05:34:08;;;;;;;4.18;2.25;;;17.90;59.20;;;;;;4998027;28;20196;-69
2022/11/10 05:36:54;;;;;;;2.38;1.98;;;17.90;59.30;;;;;;4998176;28;20220;-69
2022/11/10 05:39:40;;;;;;;2.70;2.15;;;17.80;59.20;;;;;;4998300;28;20200;-69
2022/11/10 05:42:27;;;;;;;2.88;2.33;;;17.90;59.30;;;;;;4998117;28;20716;-69
2022/11/10 05:45:12;;;;;;;3.47;2.40;;;17.80;59.30;;;;;;4997893;28;20220;-69
2022/11/10 05:47:57;;;;;;;6.18;2.55;;;17.80;59.50;;;;;;4998088;28;20236;-69
2022/11/10 05:50:43;;;;;;;4.13;1.90;;;17.80;59.60;;;;;;4998111;28;20305;-69
2022/11/10 05:53:29;;;;;;;3.92;2.10;;;17.80;59.90;;;;;;4998053;28;20590;-69
2022/11/10 05:56:15;;;;;;;3.28;2.30;;;17.70;59.90;;;;;;4997982;28;20180;-69
2022/11/10 05:59:01;;;;;;;3.33;2.05;;;17.80;60.20;;;;;;4997929;28;20196;-69
2022/11/10 06:01:47;;;;;;;4.18;2.40;;;17.70;60.00;;;;;;4997912;28;20188;-69
2022/11/10 06:04:33;;;;;;;3.53;2.20;;;17.70;59.90;;;;;;4998125;28;20224;-69
2022/11/10 06:07:19;;;;;;;3.65;2.17;;;17.70;60.20;;;;;;5125131;22;20236;-70
2022/11/10 06:10:06;;;;;;;4.22;2.00;;;17.70;60.00;;;;;;5017517;28;20565;-69
2022/11/10 06:12:51;;;;;;;2.63;1.80;;;17.70;60.40;;;;;;5017753;28;20208;-69
2022/11/10 06:15:38;;;;;;;3.03;1.88;;;17.70;59.90;;;;;;5017498;28;20618;-69
2022/11/10 06:18:24;;;;;;;3.35;2.30;;;17.70;60.00;;;;;;5069689;23;20309;-65
2022/11/10 06:21:12;;;;;;;3.05;1.85;;;17.70;60.10;;;;;;5067807;23;20243;-70
2022/11/10 06:23:58;;;;;;;4.50;1.92;;;17.70;60.00;;;;;;5037117;28;20196;-70
2022/11/10 06:26:44;;;;;;;3.67;2.25;;;17.70;60.00;;;;;;5036450;28;20362;-69
2022/11/10 06:29:30;;;;;;;3.20;2.13;;;17.70;59.90;;;;;;5036784;28;20272;-69
2022/11/10 06:32:17;;;;;;;2.78;1.83;;;17.80;59.90;;;;;;5049207;23;20239;-68
2022/11/10 06:35:03;;;;;;;2.45;2.10;;;17.70;59.80;;;;;;5078627;23;20597;-69
2022/11/10 06:37:57;;;;;;;3.75;2.00;;;17.70;59.70;;;;;;5017439;28;20247;-70
2022/11/10 06:40:43;;;;;;;2.97;2.10;;;17.70;59.60;;;;;;5017266;28;20191;-70
2022/11/10 06:43:28;;;;;;;2.85;2.08;;;17.70;59.50;;;;;;5065666;23;20243;-70
2022/11/10 06:46:20;;;;;;;3.53;2.28;;;17.70;59.30;;;;;;5064466;23;20243;-70
2022/11/10 06:49:07;;;;;;;4.22;1.90;;;17.70;59.90;;;;;;5074932;22;20321;-69
2022/11/10 06:51:52;;;;;;;2.42;2.00;;;17.80;59.90;;;;;;5050786;23;20282;-69
2022/11/10 06:54:38;;;;;;;2.92;1.90;;;17.70;59.10;;;;;;5032154;28;20196;-68
2022/11/10 06:57:24;;;;;;;3.33;2.10;;;17.80;59.00;;;;;;5031971;28;20263;-68
2022/11/10 07:00:11;;;;;;;4.45;2.20;;;17.70;59.00;;;;;;5017405;28;20192;-68
2022/11/10 07:03:01;;;;;;;3.25;2.00;;;17.80;59.10;;;;;;5017398;28;20642;-68
2022/11/10 07:05:48;;;;;;;3.25;2.08;;;17.80;58.80;;;;;;5016609;28;20211;-68
2022/11/10 07:08:34;;;;;;;4.20;2.30;;;17.80;58.50;;;;;;5016513;28;20187;-68
2022/11/10 07:11:20;;;;;;;3.28;2.28;;;17.90;58.90;;;;;;5016594;28;20183;-68
2022/11/10 07:14:06;;;;;;;2.67;2.22;;;17.90;58.60;;;;;;5017011;28;20211;-68
2022/11/10 07:16:51;;;;;;;4.63;2.25;;;17.90;58.50;;;;;;5016460;28;20713;-68
2022/11/10 07:19:37;;;;;;;4.25;2.20;;;18.00;58.30;;;;;;5016987;28;20248;-68
2022/11/10 07:22:24;;;;;;;2.28;2.08;;;18.00;58.30;;;;;;5016570;28;20184;-68
2022/11/10 07:25:10;;;;;;;2.55;2.00;;;18.10;58.10;;;;;;5016184;28;20187;-68
2022/11/10 07:27:56;;;;;;;3.45;2.20;;;18.10;58.00;;;;;;5016402;28;20667;-68
2022/11/10 07:30:42;;;;;;;2.88;2.25;;;18.20;57.80;;;;;;5016542;28;20279;-68
2022/11/10 07:33:27;;;;;;;4.13;2.35;;;18.20;57.60;;;;;;5016269;28;20659;-68
2022/11/10 07:36:13;;;;;;;2.80;2.20;;;18.20;57.40;;;;;;5016324;28;20263;-68
2022/11/10 07:39:00;;;;;;;2.40;2.00;;;18.20;57.40;;;;;;5017029;28;20535;-68
2022/11/10 07:41:46;;;;;;;2.72;2.00;;;18.20;57.20;;;;;;5016407;28;20324;-67
2022/11/10 07:44:33;;;;;;;2.95;2.00;;;18.30;57.40;;;;;;5016376;28;20191;-67
2022/11/10 07:47:18;;;;;;;2.63;1.90;;;18.30;57.20;;;;;;5015835;28;20270;-68
2022/11/10 07:50:04;;;;;;;3.70;2.00;;;18.40;57.10;;;;;;5015904;28;20192;-68
2022/11/10 07:52:50;;;;;;;2.05;1.85;;;18.40;57.30;;;;;;5016543;28;20211;-68
2022/11/10 07:55:38;;;;;;;2.50;2.00;;;18.40;57.10;;;;;;5015404;28;20184;-68
2022/11/10 07:58:24;;;;;;;2.42;1.85;;;18.40;56.90;;;;;;5015090;28;20316;-68
2022/11/10 08:01:10;;;;;;;2.85;1.70;;;18.40;56.90;;;;;;5015411;28;20212;-68
2022/11/10 08:03:56;;;;;;;2.92;1.92;;;18.40;56.80;;;;;;5015552;28;20543;-68
2022/11/10 08:06:41;;;;;;;1.95;1.75;;;18.40;56.90;;;;;;5015023;28;20231;-68
2022/11/10 08:09:27;;;;;;;1.77;1.67;;;18.40;56.80;;;;;;5015800;28;20191;-68
2022/11/10 08:12:14;;;;;;;2.67;1.65;;;18.40;56.60;;;;;;5015283;28;20239;-68
2022/11/10 08:15:00;;;;;;;3.08;1.70;;;18.40;56.80;;;;;;5015105;28;20180;-67
2022/11/10 08:17:45;;;;;;;1.60;1.45;;;18.40;56.80;;;;;;5015054;28;20354;-68
2022/11/10 08:20:31;;;;;;;1.73;1.63;;;18.40;56.70;;;;;;5014804;28;20195;-68
2022/11/10 08:23:17;;;;;;;1.92;1.60;;;18.40;56.60;;;;;;5015076;28;20196;-68
2022/11/10 08:26:03;;;;;;;2.22;1.60;;;18.40;56.70;;;;;;5014761;28;20330;-68
2022/11/10 08:28:50;;;;;;;2.78;1.75;;;18.40;56.70;;;;;;5015165;28;20304;-68
2022/11/10 08:31:37;;;;;;;2.50;1.42;;;18.40;56.80;;;;;;5014940;28;20207;-68
2022/11/10 08:34:23;;;;;;;2.30;1.70;;;18.40;56.80;;;;;;5014940;28;20192;-68
2022/11/10 08:37:11;;;;;;;2.20;1.80;;;18.40;57.20;;;;;;5015050;28;20224;-68
2022/11/10 08:39:56;;;;;;;2.42;1.40;;;18.50;56.80;;;;;;5014948;28;20195;-68
2022/11/10 08:42:42;;;;;;;2.42;1.65;;;18.50;56.80;;;;;;5014465;28;20634;-68
2022/11/10 08:45:29;;;;;;;1.52;1.42;;;18.50;57.00;;;;;;5014668;28;20311;-68
2022/11/10 08:48:16;;;;;;;3.70;1.80;;;18.50;56.80;;;;;;5013504;28;20243;-69
2022/11/10 08:51:02;;;;;;;3.33;2.40;;;18.50;56.90;;;;;;5014428;28;20216;-69
2022/11/10 08:53:47;;;;;;;2.30;1.88;;;18.50;57.00;;;;;;5014250;28;20236;-69
2022/11/10 08:56:34;;;;;;;2.38;2.17;;;18.50;57.00;;;;;;5014214;28;20211;-69
2022/11/10 08:59:20;;;;;;;3.65;2.40;;;18.50;57.00;;;;;;5013377;28;20674;-69
2022/11/10 09:02:08;;;;;;;2.58;1.90;;;18.50;57.10;;;;;;5014449;28;20196;-69
2022/11/10 09:04:53;;;;;;;2.50;2.30;;;18.50;57.10;;;;;;5014340;28;20663;-69
2022/11/10 09:07:43;;;;;;;3.03;2.55;;;18.50;57.10;;;;;;5014016;28;20351;-69
2022/11/10 09:10:29;;;;;;;3.10;2.80;;;18.50;57.20;;;;;;5013970;28;20315;-69
2022/11/10 09:13:15;;;;;;;3.08;2.78;;;18.50;57.20;;;;;;5014185;28;20187;-69
2022/11/10 09:16:01;;;;;;;3.10;2.60;;;18.50;57.20;;;;;;5014763;28;20188;-69
2022/11/10 09:18:48;;;;;;;2.83;2.63;;;18.60;57.40;;;;;;5014613;28;20223;-69
2022/11/10 09:21:34;;;;;;;3.47;2.83;;;18.50;57.30;;;;;;5014674;28;20250;-69
2022/11/10 09:24:20;;;;;;;2.40;2.20;;;18.50;57.30;;;;;;5015058;28;20184;-69
2022/11/10 09:27:05;;;;;;;2.92;2.63;;;18.50;57.50;;;;;;5014927;28;20227;-69
2022/11/10 09:29:52;;;;;;;3.25;2.80;;;18.60;57.40;;;;;;5015599;28;20286;-69
2022/11/10 09:32:37;;;;;;;2.35;2.15;;;18.60;57.40;;;;;;5015088;28;20187;-69
2022/11/10 09:35:24;;;;;;;3.22;2.83;;;18.60;57.60;;;;;;5015226;28;20195;-69
2022/11/10 09:38:10;;;;;;;2.78;2.10;;;18.60;57.60;;;;;;5014854;28;20234;-69
2022/11/10 09:41:01;;;;;;;2.50;2.30;;;18.60;57.60;;;;;;5014149;28;20192;-69
2022/11/10 09:43:52;;;;;;;2.47;2.20;;;18.70;57.60;;;;;;5014129;28;20696;-69
2022/11/10 09:46:40;;;;;;;2.50;2.30;;;18.70;57.40;;;;;;5014131;28;20709;-69
2022/11/10 09:49:31;;;;;;;2.47;2.28;;;18.80;57.40;;;;;;5014363;28;20188;-69
2022/11/10 09:52:19;;;;;;;3.05;2.28;;;18.80;57.50;;;;;;5013917;28;20219;-69
2022/11/10 09:55:11;;;;;;;2.40;2.20;;;18.90;57.50;;;;;;5014373;28;20196;-69
2022/11/10 09:57:57;;;;;;;2.65;2.10;;;18.90;57.40;;;;;;5014059;28;20741;-69
2022/11/10 10:00:44;;;;;;;3.13;2.55;;;18.90;57.20;;;;;;5013074;28;20196;-69
2022/11/10 10:03:30;;;;;;;2.58;2.10;;;18.90;57.10;;;;;;5013547;28;20308;-69
2022/11/10 10:06:18;;;;;;;2.25;2.05;;;18.90;57.20;;;;;;5013530;28;20348;-69
2022/11/10 10:09:10;;;;;;;2.53;1.90;;;18.90;57.10;;;;;;5013875;28;20188;-69
2022/11/10 10:12:01;;;;;;;2.33;1.90;;;18.90;57.20;;;;;;5017433;28;20540;-69
2022/11/10 10:15:03;;;;;;;2.30;2.10;;;18.90;57.30;;;;;;5017809;28;20204;-69
2022/11/10 10:17:54;;;;;;;2.53;2.20;;;18.90;57.20;;;;;;5018073;28;20235;-69
2022/11/10 10:20:45;;;;;;;2.08;1.80;;;18.90;57.10;;;;;;5017724;28;20200;-68
2022/11/10 10:23:33;;;;;;;2.22;1.85;;;19.00;57.20;;;;;;5017107;28;20651;-68
2022/11/10 10:26:23;;;;;;;2.63;2.05;;;19.00;57.10;;;;;;5016661;28;20215;-68
2022/11/10 10:29:09;;;;;;;2.97;2.10;;;19.00;57.00;;;;;;5017290;28;20184;-69
2022/11/10 10:31:57;;;;;;;2.45;1.85;;;19.00;57.00;;;;;;5016815;28;20180;-69
2022/11/10 10:34:43;;;;;;;2.72;2.00;;;19.00;57.50;;;;;;5017211;28;20336;-68
2022/11/10 10:37:34;;;;;;;3.42;1.85;;;19.10;57.00;;;;;;5016643;28;20223;-68
2022/11/10 10:40:20;;;;;;;2.00;1.80;;;19.10;56.90;;;;;;5016768;28;20241;-68
2022/11/10 10:43:08;;;;;;;2.72;1.88;;;19.10;57.00;;;;;;5015615;28;20243;-68
2022/11/10 10:46:03;;;;;;;3.17;1.42;;;19.10;56.80;;;;;;5016554;28;20192;-68
2022/11/10 10:48:49;;;;;;;3.75;1.63;;;19.10;56.90;;;;;;5016323;28;20320;-68
2022/11/10 10:51:35;;;;;;;2.05;1.60;;;19.20;56.80;;;;;;5016322;28;20207;-68
2022/11/10 10:54:25;;;;;;;1.67;1.50;;;19.20;56.80;;;;;;5016487;28;20658;-68
2022/11/10 10:57:20;;;;;;;1.88;1.65;;;19.20;56.80;;;;;;5015256;28;20598;-68
2022/11/10 11:00:19;;;;;;;1.83;1.60;;;19.20;56.80;;;;;;5016655;28;20257;-68
2022/11/10 11:03:07;;;;;;;1.52;1.40;;;19.20;56.80;;;;;;5016449;28;20196;-68
2022/11/10 11:06:05;;;;;;;3.13;1.33;;;19.20;56.80;;;;;;5016052;28;20270;-68
2022/11/10 11:08:56;;;;;;;2.53;1.67;;;19.30;56.90;;;;;;5016744;28;20243;-68
2022/11/10 11:11:43;;;;;;;2.10;1.30;;;19.30;56.90;;;;;;5016431;28;20184;-68
2022/11/10 11:14:30;;;;;;;1.65;1.40;;;19.20;56.60;;;;;;5015818;28;20271;-68
2022/11/10 11:17:20;;;;;;;1.40;1.30;;;19.30;56.40;;;;;;5015971;28;20219;-68
2022/11/10 11:20:09;;;;;;;1.60;1.48;;;19.30;56.70;;;;;;5016302;28;20646;-68
2022/11/10 11:22:55;;;;;;;1.92;1.40;;;19.30;56.70;;;;;;5014973;28;20296;-68
2022/11/10 11:25:42;;;;;;;1.90;1.40;;;19.30;56.60;;;;;;5016044;28;20183;-68
2022/11/10 11:28:30;;;;;;;1.77;1.30;;;19.30;56.60;;;;;;5015678;28;20351;-68
2022/11/10 11:31:19;;;;;;;1.63;1.25;;;19.40;56.80;;;;;;5016034;28;20619;-68
2022/11/10 11:34:10;;;;;;;1.40;1.30;;;19.40;56.50;;;;;;5016383;28;20259;-68
2022/11/10 11:36:59;;;;;;;1.70;1.60;;;19.40;56.30;;;;;;5015620;28;20298;-68
2022/11/10 11:39:50;;;;;;;2.58;1.50;;;19.40;56.40;;;;;;5015447;28;20255;-68
2022/11/10 11:42:45;;;;;;;3.40;1.45;;;19.50;56.50;;;;;;5015876;28;20195;-68
2022/11/10 11:45:36;;;;;;;1.70;1.30;;;19.50;56.70;;;;;;5015591;28;20192;-68
2022/11/10 11:48:40;;;;;;;1.92;1.20;;;19.60;56.50;;;;;;5015608;28;20249;-68
2022/11/10 11:51:30;;;;;;;1.15;1.05;;;19.60;56.50;;;;;;5016115;28;20207;-68
2022/11/10 11:54:24;;;;;;;1.48;1.30;;;19.60;56.80;;;;;;5016179;28;20204;-68
2022/11/10 11:57:16;;;;;;;1.85;1.33;;;19.70;56.80;;;;;;5015902;28;20381;-68
2022/11/10 12:00:07;;;;;;;1.73;1.40;;;19.70;56.20;;;;;;5016373;28;20185;-68
2022/11/10 12:03:06;;;;;;;1.50;1.40;;;19.80;56.30;;;;;;5016188;28;20275;-68
2022/11/10 12:05:56;;;;;;;1.85;1.48;;;19.80;56.00;;;;;;5016528;28;20192;-68
2022/11/10 12:08:48;;;;;;;1.88;1.20;;;19.90;56.00;;;;;;5017562;28;20184;-69
2022/11/10 12:11:40;;;;;;;1.33;1.10;;;20.00;55.90;;;;;;5016645;28;20249;-69
2022/11/10 12:14:30;;;;;;;2.15;1.25;;;20.00;55.90;;;;;;5033887;23;20262;-68
2022/11/10 12:17:18;;;;;;;1.45;1.30;;;20.00;55.60;;;;;;5035533;28;20258;-68
2022/11/10 12:20:07;;;;;;;1.60;1.30;;;20.00;55.50;;;;;;5035960;28;20191;-68
2022/11/10 12:22:56;;;;;;;1.92;1.42;;;20.00;55.70;;;;;;5036631;28;20175;-68
2022/11/10 12:25:47;;;;;;;1.48;1.23;;;20.10;55.60;;;;;;5035129;28;20191;-68
2022/11/10 12:28:36;;;;;;;1.30;1.17;;;20.00;55.80;;;;;;5035085;28;20215;-68
2022/11/10 12:31:22;;;;;;;1.30;1.20;;;20.00;55.90;;;;;;5034934;28;20681;-68
2022/11/10 12:34:10;;;;;;;1.40;1.30;;;20.10;55.80;;;;;;5034842;28;20318;-68
2022/11/10 12:36:57;;;;;;;1.75;1.15;;;20.20;55.70;;;;;;5034859;28;20234;-68
2022/11/10 12:39:48;;;;;;;1.55;1.10;;;20.10;55.20;;;;;;5035024;28;20184;-68
2022/11/10 12:42:35;;;;;;;1.58;1.20;;;20.20;55.10;;;;;;5034834;28;20576;-68
2022/11/10 12:45:23;;;;;;;1.85;1.00;;;20.20;55.60;;;;;;5035199;28;20198;-68
2022/11/10 12:48:10;;;;;;;1.27;1.10;;;20.20;55.70;;;;;;5034784;28;20242;-68
2022/11/10 12:50:58;;;;;;;2.05;1.10;;;20.20;55.50;;;;;;5035221;28;20260;-67
2022/11/10 12:53:44;;;;;;;1.23;1.13;;;20.20;55.40;;;;;;5035009;28;20271;-68
2022/11/10 12:56:32;;;;;;;1.83;1.23;;;20.20;55.00;;;;;;5034646;28;20218;-68
2022/11/10 12:59:32;;;;;;;2.33;1.45;;;20.20;54.80;;;;;;5034774;28;20322;-68
2022/11/10 13:02:22;;;;;;;1.75;1.13;;;20.10;55.10;;;;;;5034740;28;20199;-68
2022/11/10 13:05:25;;;;;;;1.48;1.13;;;20.20;55.10;;;;;;5034975;28;20199;-68
2022/11/10 13:08:34;;;;;;;1.40;1.10;;;20.10;55.40;;;;;;5035067;28;20291;-67
2022/11/10 13:11:24;;;;;;;1.25;1.08;;;20.10;55.50;;;;;;5034931;28;20550;-67
2022/11/10 13:14:20;;;;;;;1.40;1.10;;;20.10;55.70;;;;;;5034873;28;20266;-67
2022/11/10 13:17:08;;;;;;;1.98;1.27;;;20.20;55.80;;;;;;5034716;28;20222;-67
2022/11/10 13:19:54;;;;;;;1.25;0.98;;;20.10;56.00;;;;;;5034436;28;20180;-67
2022/11/10 13:22:40;;;;;;;1.20;1.10;;;20.10;55.60;;;;;;5034576;28;20195;-67
2022/11/10 13:25:53;;;;;;;1.67;1.10;;;20.10;55.60;;;;;;5034760;28;20259;-67
2022/11/10 13:28:58;;;;;;;1.35;1.08;;;20.10;55.50;;;;;;5006877;28;20293;-67
2022/11/10 13:31:52;;;;;;;1.20;1.10;;;20.10;55.70;;;;;;5034545;28;20187;-67
2022/11/10 13:34:39;;;;;;;1.48;1.20;;;20.10;55.50;;;;;;5034450;28;20536;-67
2022/11/10 13:37:45;;;;;;;1.42;1.20;;;20.10;55.70;;;;;;5034331;28;20563;-67
2022/11/10 13:40:35;;;;;;;1.20;1.10;;;20.10;55.80;;;;;;5033867;28;20199;-67
2022/11/10 13:43:25;;;;;;;1.83;1.00;;;20.00;55.70;;;;;;5033836;28;20192;-67
2022/11/10 13:46:11;;;;;;;1.70;1.20;;;20.10;55.70;;;;;;5035947;28;20207;-67
2022/11/10 13:49:20;;;;;;;1.10;1.00;;;20.00;55.60;;;;;;5037764;28;20245;-67
2022/11/10 13:52:11;;;;;;;1.10;1.00;;;20.00;55.90;;;;;;5037617;28;20188;-67
2022/11/10 13:55:07;;;;;;;1.60;1.20;;;20.00;55.70;;;;;;5037658;28;20187;-67
2022/11/10 13:57:58;;;;;;;1.30;1.20;;;20.00;55.90;;;;;;5037809;28;20573;-67
2022/11/10 14:00:44;;;;;;;1.30;1.20;;;20.00;55.90;;;;;;5037742;28;20665;-67
2022/11/10 14:03:52;;;;;;;1.98;1.30;;;19.90;55.70;;;;;;5038120;28;20188;-67
2022/11/10 14:06:40;;;;;;;1.08;1.00;;;19.90;55.90;;;;;;5037863;28;20226;-67
2022/11/10 14:09:30;;;;;;;2.17;0.90;;;19.90;56.00;;;;;;5037436;28;20270;-67
2022/11/10 14:12:21;;;;;;;1.27;1.00;;;19.90;56.10;;;;;;5037731;28;20292;-67
2022/11/10 14:15:11;;;;;;;1.02;1.00;;;19.80;56.20;;;;;;5037103;28;20226;-67
2022/11/10 14:17:58;;;;;;;1.13;1.00;;;19.80;56.20;;;;;;5037002;28;20234;-67
2022/11/10 14:20:45;;;;;;;2.78;1.30;;;19.80;56.20;;;;;;5037313;28;20191;-67
2022/11/10 14:23:33;;;;;;;1.20;1.10;;;19.80;56.30;;;;;;5037515;28;20187;-67
2022/11/10 14:26:23;;;;;;;1.98;1.30;;;19.80;56.40;;;;;;5037072;28;20271;-67
2022/11/10 14:29:29;;;;;;;1.52;1.10;;;19.70;56.40;;;;;;5036558;28;20586;-67
2022/11/10 14:32:16;;;;;;;1.38;1.15;;;19.70;56.40;;;;;;5036888;28;20183;-67
2022/11/10 14:35:02;;;;;;;1.30;1.20;;;19.70;56.50;;;;;;5037193;28;20301;-67
2022/11/10 14:37:48;;;;;;;1.67;1.23;;;19.70;56.40;;;;;;5036944;28;20247;-67
2022/11/10 14:40:33;;;;;;;1.25;1.15;;;19.70;56.40;;;;;;5037205;28;20207;-67
2022/11/10 14:43:27;;;;;;;1.20;1.10;;;19.60;56.80;;;;;;5037214;28;20548;-67
2022/11/10 14:46:14;;;;;;;2.25;1.77;;;19.60;56.80;;;;;;5036928;28;20207;-67
2022/11/10 14:49:00;;;;;;;1.88;1.70;;;19.60;56.90;;;;;;5036919;28;20673;-67